Time;durP1;ratioP1;P1;durP2;ratioP2;P2;SDS_P1;SDS_P2;PMS_P1;PMS_P2;Temp;Humidity;BMP_temperature;BMP_pressure;BME280_temperature;BME280_humidity;BME280_pressure;Samples;Min_cycle;Max_cycle;Signal;HPM_P1;HPM_P2
2021/07/11 00:00:28;;;;;;;5.25;2.22;;;;;;;;;;4998991;28;20120;-84
2021/07/11 00:02:54;;;;;;;4.85;1.67;;;;;;;;;;4998848;28;20537;-84
2021/07/11 00:05:20;;;;;;;3.78;1.90;;;;;;;;;;4999582;28;20029;-84
2021/07/11 00:07:46;;;;;;;4.97;1.90;;;;;;;;;;4982859;28;20044;-84
2021/07/11 00:10:15;;;;;;;3.78;1.60;;;;;;;;;;4964525;28;20057;-83
2021/07/11 00:12:41;;;;;;;3.88;1.67;;;;;;;;;;4995665;28;20026;-84
2021/07/11 00:15:08;;;;;;;3.03;1.40;;;;;;;;;;5019997;28;20542;-83
2021/07/11 00:17:34;;;;;;;3.97;1.65;;;;;;;;;;4995715;28;20468;-84
2021/07/11 00:20:07;;;;;;;3.17;1.88;;;;;;;;;;4996208;28;20041;-84
2021/07/11 00:22:32;;;;;;;4.78;2.33;;;;;;;;;;4995699;28;20038;-84
2021/07/11 00:24:59;;;;;;;3.85;1.60;;;;;;;;;;5011517;28;20048;-83
2021/07/11 00:27:24;;;;;;;2.90;1.73;;;;;;;;;;5011685;28;20030;-84
2021/07/11 00:29:50;;;;;;;4.63;1.83;;;;;;;;;;5011940;28;20499;-84
2021/07/11 00:32:18;;;;;;;4.68;1.75;;;;;;;;;;4995581;28;20046;-84
2021/07/11 00:34:44;;;;;;;4.90;2.08;;;;;;;;;;4995259;28;20033;-84
2021/07/11 00:37:09;;;;;;;3.75;1.67;;;;;;;;;;4995336;28;20034;-84
2021/07/11 00:39:35;;;;;;;3.80;1.80;;;;;;;;;;4994598;28;20022;-84
2021/07/11 00:42:01;;;;;;;4.68;2.38;;;;;;;;;;4994119;28;20030;-84
2021/07/11 00:44:27;;;;;;;3.60;1.73;;;;;;;;;;5001963;28;20042;-84
2021/07/11 00:46:52;;;;;;;2.95;1.67;;;;;;;;;;4998320;28;20069;-84
2021/07/11 00:49:18;;;;;;;3.60;1.80;;;;;;;;;;4996708;28;20022;-84
2021/07/11 00:51:44;;;;;;;4.35;1.60;;;;;;;;;;4995035;28;20057;-84
2021/07/11 00:54:11;;;;;;;5.85;2.05;;;;;;;;;;4995013;28;20152;-84
2021/07/11 00:56:38;;;;;;;3.08;1.60;;;;;;;;;;4978269;28;20038;-84
2021/07/11 00:59:04;;;;;;;2.72;1.52;;;;;;;;;;4963211;28;20025;-84
2021/07/11 01:01:34;;;;;;;3.15;1.60;;;;;;;;;;4997416;28;20036;-84
2021/07/11 01:04:01;;;;;;;3.80;1.95;;;;;;;;;;4994647;28;20447;-84
2021/07/11 01:06:28;;;;;;;3.13;1.98;;;;;;;;;;4994675;28;20511;-84
2021/07/11 01:09:02;;;;;;;3.15;1.65;;;;;;;;;;4994501;28;20396;-84
2021/07/11 01:11:28;;;;;;;5.00;1.83;;;;;;;;;;4994402;28;20034;-84
2021/07/11 01:13:54;;;;;;;5.22;1.70;;;;;;;;;;4994600;28;20064;-84
2021/07/11 01:16:24;;;;;;;4.38;2.00;;;;;;;;;;4994855;28;20030;-84
2021/07/11 01:18:50;;;;;;;4.13;1.90;;;;;;;;;;4995053;28;20030;-84
2021/07/11 01:21:16;;;;;;;3.00;1.60;;;;;;;;;;4994707;28;20088;-84
2021/07/11 01:24:06;;;;;;;3.35;1.88;;;;;;;;;;4994400;28;20049;-84
2021/07/11 01:26:33;;;;;;;3.95;1.95;;;;;;;;;;5010597;28;20740;-84
2021/07/11 01:28:58;;;;;;;4.57;1.65;;;;;;;;;;4994858;28;20025;-84
2021/07/11 01:31:25;;;;;;;3.95;1.70;;;;;;;;;;4994668;28;20365;-84
2021/07/11 01:33:51;;;;;;;4.07;1.98;;;;;;;;;;4994505;28;20034;-84
2021/07/11 01:36:17;;;;;;;2.80;1.67;;;;;;;;;;4995083;28;20052;-84
2021/07/11 01:38:43;;;;;;;4.47;2.05;;;;;;;;;;4994188;28;20117;-82
2021/07/11 01:41:10;;;;;;;3.13;1.60;;;;;;;;;;4994565;28;20038;-84
2021/07/11 01:43:36;;;;;;;3.22;1.63;;;;;;;;;;4994704;28;20037;-84
2021/07/11 01:46:03;;;;;;;3.22;1.60;;;;;;;;;;5029977;28;20033;-84
2021/07/11 01:48:30;;;;;;;3.53;1.83;;;;;;;;;;5013837;28;20033;-84
2021/07/11 01:50:56;;;;;;;4.53;2.00;;;;;;;;;;5010740;28;20038;-84
2021/07/11 01:53:32;;;;;;;3.05;1.67;;;;;;;;;;4996177;28;20068;-84
2021/07/11 01:55:57;;;;;;;3.05;1.85;;;;;;;;;;4983239;28;20432;-84
2021/07/11 01:58:23;;;;;;;3.33;1.63;;;;;;;;;;4998133;28;20061;-84
2021/07/11 02:00:49;;;;;;;3.42;1.90;;;;;;;;;;4982049;28;20040;-84
2021/07/11 02:03:16;;;;;;;3.10;1.95;;;;;;;;;;5008474;28;20499;-84
2021/07/11 02:05:41;;;;;;;2.83;1.83;;;;;;;;;;5014601;28;20037;-84
2021/07/11 02:08:09;;;;;;;3.00;1.90;;;;;;;;;;4997942;28;20037;-84
2021/07/11 02:10:34;;;;;;;5.22;1.90;;;;;;;;;;4997910;28;20033;-85
2021/07/11 02:13:12;;;;;;;3.80;2.38;;;;;;;;;;4998271;28;20084;-84
2021/07/11 02:15:38;;;;;;;3.55;2.30;;;;;;;;;;5001314;28;20029;-84
2021/07/11 02:18:04;;;;;;;4.22;2.13;;;;;;;;;;5001136;28;20026;-84
2021/07/11 02:20:30;;;;;;;2.60;2.00;;;;;;;;;;5001255;28;20052;-84
2021/07/11 02:22:57;;;;;;;4.53;2.53;;;;;;;;;;5001382;28;20028;-84
2021/07/11 02:25:22;;;;;;;4.72;2.28;;;;;;;;;;5000742;28;20034;-84
2021/07/11 02:27:49;;;;;;;5.10;2.95;;;;;;;;;;5001585;28;20044;-84
2021/07/11 02:30:16;;;;;;;4.30;2.58;;;;;;;;;;5001167;28;20029;-84
2021/07/11 02:32:45;;;;;;;3.45;2.25;;;;;;;;;;5001096;28;20040;-84
2021/07/11 02:35:11;;;;;;;6.80;2.40;;;;;;;;;;5001399;28;20041;-84
2021/07/11 02:37:38;;;;;;;3.80;2.35;;;;;;;;;;5000450;28;20573;-85
2021/07/11 02:40:05;;;;;;;5.43;2.80;;;;;;;;;;5000955;28;20036;-85
2021/07/11 02:42:31;;;;;;;3.33;2.60;;;;;;;;;;5001240;28;20049;-84
2021/07/11 02:44:58;;;;;;;4.15;2.08;;;;;;;;;;5000558;28;20124;-84
2021/07/11 02:47:26;;;;;;;2.95;2.08;;;;;;;;;;5000883;28;20079;-84
2021/07/11 02:49:53;;;;;;;5.55;2.55;;;;;;;;;;5003720;28;20037;-84
2021/07/11 02:52:20;;;;;;;3.40;2.47;;;;;;;;;;4981035;28;20040;-84
2021/07/11 02:54:50;;;;;;;3.72;2.30;;;;;;;;;;4980896;28;20060;-85
2021/07/11 02:57:18;;;;;;;3.45;2.17;;;;;;;;;;4980935;28;20029;-85
2021/07/11 02:59:45;;;;;;;3.95;2.30;;;;;;;;;;4981270;28;20365;-85
2021/07/11 03:02:12;;;;;;;3.70;2.70;;;;;;;;;;5002229;28;20042;-84
2021/07/11 03:04:38;;;;;;;4.30;2.05;;;;;;;;;;4996326;28;20033;-84
2021/07/11 03:07:05;;;;;;;4.18;2.38;;;;;;;;;;4981048;28;20037;-84
2021/07/11 03:09:30;;;;;;;4.32;2.42;;;;;;;;;;4980578;28;20030;-84
2021/07/11 03:11:56;;;;;;;5.03;2.83;;;;;;;;;;4997306;28;20075;-85
2021/07/11 03:14:23;;;;;;;5.10;2.80;;;;;;;;;;5002103;28;20113;-85
2021/07/11 03:16:51;;;;;;;5.55;2.75;;;;;;;;;;5000366;28;20057;-84
2021/07/11 03:19:17;;;;;;;4.40;2.63;;;;;;;;;;5000295;28;20044;-84
2021/07/11 03:21:42;;;;;;;5.57;2.65;;;;;;;;;;5000081;28;20033;-85
2021/07/11 03:24:08;;;;;;;4.18;2.60;;;;;;;;;;4999792;28;20032;-84
2021/07/11 03:26:35;;;;;;;2.92;2.13;;;;;;;;;;5000228;28;20029;-84
2021/07/11 03:29:06;;;;;;;5.05;2.33;;;;;;;;;;5000193;28;20144;-84
2021/07/11 03:31:32;;;;;;;4.20;2.50;;;;;;;;;;5000204;28;20056;-84
2021/07/11 03:33:58;;;;;;;7.10;2.83;;;;;;;;;;4999969;28;20044;-85
2021/07/11 03:36:24;;;;;;;5.30;2.70;;;;;;;;;;4983591;28;20400;-84
2021/07/11 03:38:54;;;;;;;2.85;2.25;;;;;;;;;;4983379;28;20025;-85
2021/07/11 03:41:23;;;;;;;3.80;2.25;;;;;;;;;;5000533;28;20030;-84
2021/07/11 03:43:52;;;;;;;4.70;2.40;;;;;;;;;;5000147;28;20037;-85
2021/07/11 03:46:18;;;;;;;4.28;2.20;;;;;;;;;;4999111;28;20124;-84
2021/07/11 03:48:51;;;;;;;3.65;2.10;;;;;;;;;;4999284;28;20042;-84
2021/07/11 03:51:22;;;;;;;3.55;2.53;;;;;;;;;;4983568;28;20032;-84
2021/07/11 03:53:48;;;;;;;3.78;2.15;;;;;;;;;;4999422;28;20033;-85
2021/07/11 03:56:14;;;;;;;4.55;2.50;;;;;;;;;;4983498;28;20091;-85
2021/07/11 03:58:41;;;;;;;3.00;2.15;;;;;;;;;;4999476;28;20025;-85
2021/07/11 04:01:07;;;;;;;3.97;2.38;;;;;;;;;;4983594;28;20025;-84
2021/07/11 04:03:38;;;;;;;4.18;2.45;;;;;;;;;;4983275;28;20502;-84
2021/07/11 04:06:05;;;;;;;5.00;2.20;;;;;;;;;;4999098;28;20032;-84
2021/07/11 04:08:30;;;;;;;3.40;2.50;;;;;;;;;;4999237;28;20036;-85
2021/07/11 04:10:59;;;;;;;4.85;2.60;;;;;;;;;;4983120;28;20388;-84
2021/07/11 04:13:26;;;;;;;6.80;2.50;;;;;;;;;;4983185;28;20167;-84
2021/07/11 04:15:54;;;;;;;8.32;2.25;;;;;;;;;;4982761;28;20494;-85
2021/07/11 04:18:21;;;;;;;3.72;2.30;;;;;;;;;;4999233;28;20033;-84
2021/07/11 04:20:48;;;;;;;3.97;2.33;;;;;;;;;;4999265;28;20041;-84
2021/07/11 04:23:13;;;;;;;3.47;2.17;;;;;;;;;;4998902;28;20035;-84
2021/07/11 04:25:41;;;;;;;4.32;2.70;;;;;;;;;;4998996;28;20037;-84
2021/07/11 04:28:09;;;;;;;3.20;1.88;;;;;;;;;;4999750;28;20499;-84
2021/07/11 04:30:34;;;;;;;4.93;2.55;;;;;;;;;;4982253;28;20044;-84
2021/07/11 04:33:00;;;;;;;3.47;2.30;;;;;;;;;;4982573;28;20025;-85
2021/07/11 04:35:25;;;;;;;5.50;2.90;;;;;;;;;;4998600;28;20037;-85
2021/07/11 04:37:53;;;;;;;4.75;2.78;;;;;;;;;;4982385;28;20025;-85
2021/07/11 04:40:18;;;;;;;5.78;2.80;;;;;;;;;;4982499;28;20082;-84
2021/07/11 04:42:45;;;;;;;7.18;2.53;;;;;;;;;;4998652;28;20029;-84
2021/07/11 04:45:10;;;;;;;4.10;2.70;;;;;;;;;;5004136;28;20030;-84
2021/07/11 04:47:36;;;;;;;4.70;2.85;;;;;;;;;;5011494;28;20030;-84
2021/07/11 04:50:03;;;;;;;4.13;2.80;;;;;;;;;;5038984;28;20395;-84
2021/07/11 04:52:31;;;;;;;5.50;2.92;;;;;;;;;;5014635;28;20463;-84
2021/07/11 04:54:57;;;;;;;5.47;3.13;;;;;;;;;;4998417;28;20059;-84
2021/07/11 04:57:23;;;;;;;4.65;3.13;;;;;;;;;;4998564;28;20044;-84
2021/07/11 04:59:49;;;;;;;4.75;2.80;;;;;;;;;;5014973;28;20033;-84
2021/07/11 05:02:16;;;;;;;4.40;2.58;;;;;;;;;;4998307;28;20112;-85
2021/07/11 05:04:43;;;;;;;4.72;3.13;;;;;;;;;;4981697;28;20033;-84
2021/07/11 05:07:08;;;;;;;5.68;3.50;;;;;;;;;;4982030;28;20488;-84
2021/07/11 05:09:34;;;;;;;4.80;3.58;;;;;;;;;;4981785;28;20075;-85
2021/07/11 05:12:00;;;;;;;5.82;3.30;;;;;;;;;;4998204;28;20029;-85
2021/07/11 05:14:28;;;;;;;5.32;3.17;;;;;;;;;;4998251;28;20026;-84
2021/07/11 05:16:55;;;;;;;5.88;3.63;;;;;;;;;;4982022;28;20035;-84
2021/07/11 05:19:20;;;;;;;7.85;4.50;;;;;;;;;;4981436;28;20037;-85
2021/07/11 05:21:47;;;;;;;7.38;4.68;;;;;;;;;;4982299;28;20029;-85
2021/07/11 05:24:13;;;;;;;6.13;4.20;;;;;;;;;;5013766;28;20038;-85
2021/07/11 05:26:39;;;;;;;7.63;4.38;;;;;;;;;;4979782;28;20057;-85
2021/07/11 05:29:05;;;;;;;5.32;4.25;;;;;;;;;;4997320;28;20104;-85
2021/07/11 05:31:30;;;;;;;5.10;4.03;;;;;;;;;;4997900;28;20033;-84
2021/07/11 05:33:56;;;;;;;5.13;4.05;;;;;;;;;;4997284;28;20041;-84
2021/07/11 05:36:23;;;;;;;5.65;4.20;;;;;;;;;;4998008;28;20025;-85
2021/07/11 05:38:50;;;;;;;6.97;4.75;;;;;;;;;;4997064;28;20029;-85
2021/07/11 05:41:17;;;;;;;7.63;5.20;;;;;;;;;;4997936;28;20032;-86
2021/07/11 05:43:48;;;;;;;7.40;4.30;;;;;;;;;;4997828;28;20120;-86
2021/07/11 05:46:17;;;;;;;6.13;5.00;;;;;;;;;;4978394;28;20091;-85
2021/07/11 05:48:43;;;;;;;6.93;5.35;;;;;;;;;;5010110;28;20033;-84
2021/07/11 05:51:09;;;;;;;6.57;5.47;;;;;;;;;;4981868;28;20029;-84
2021/07/11 05:53:34;;;;;;;7.22;5.55;;;;;;;;;;4997470;28;20044;-86
2021/07/11 05:56:01;;;;;;;6.55;5.80;;;;;;;;;;4997399;28;20036;-85
2021/07/11 05:58:26;;;;;;;7.55;5.75;;;;;;;;;;5014171;28;20073;-83
2021/07/11 06:00:53;;;;;;;8.02;6.00;;;;;;;;;;5015277;28;20037;-90
2021/07/11 06:03:20;;;;;;;8.23;6.47;;;;;;;;;;4982575;28;20033;-88
2021/07/11 06:05:48;;;;;;;6.40;5.60;;;;;;;;;;4983046;28;20025;-88
2021/07/11 06:08:15;;;;;;;6.43;5.65;;;;;;;;;;4998437;28;20128;-88
2021/07/11 06:10:40;;;;;;;8.00;6.47;;;;;;;;;;4982468;28;20112;-88
2021/07/11 06:13:10;;;;;;;10.82;6.90;;;;;;;;;;4981999;28;20084;-89
2021/07/11 06:15:37;;;;;;;16.20;6.47;;;;;;;;;;4982837;28;20036;-89
2021/07/11 06:18:03;;;;;;;16.80;6.78;;;;;;;;;;4982102;28;20033;-91
2021/07/11 06:20:34;;;;;;;19.20;6.25;;;;;;;;;;4998642;28;20487;-90
2021/07/11 06:23:00;;;;;;;18.60;6.77;;;;;;;;;;4999347;28;20034;-90
2021/07/11 06:25:27;;;;;;;11.73;6.30;;;;;;;;;;4998550;28;20040;-90
2021/07/11 06:27:54;;;;;;;18.10;7.57;;;;;;;;;;4999070;28;20052;-91
2021/07/11 06:30:21;;;;;;;10.38;6.13;;;;;;;;;;4998676;28;20030;-91
2021/07/11 06:32:49;;;;;;;11.95;6.38;;;;;;;;;;4998905;28;20386;-92
2021/07/11 06:35:20;;;;;;;15.88;7.95;;;;;;;;;;4982580;28;20025;-93
2021/07/11 06:37:47;;;;;;;11.23;7.60;;;;;;;;;;4998601;28;20152;-89
2021/07/11 06:40:21;;;;;;;10.77;7.20;;;;;;;;;;5000004;28;20338;-91
2021/07/11 06:42:49;;;;;;;11.82;7.63;;;;;;;;;;5002810;28;20056;-91
2021/07/11 06:45:15;;;;;;;13.75;6.75;;;;;;;;;;5001801;28;20033;-88
2021/07/11 06:47:41;;;;;;;9.93;6.25;;;;;;;;;;5001796;28;20083;-88
2021/07/11 06:50:11;;;;;;;7.68;5.93;;;;;;;;;;5001663;28;20030;-88
2021/07/11 06:52:38;;;;;;;12.27;6.63;;;;;;;;;;5017997;28;20037;-88
2021/07/11 06:55:06;;;;;;;8.35;6.50;;;;;;;;;;5001658;28;20037;-87
2021/07/11 06:57:34;;;;;;;8.95;6.45;;;;;;;;;;5001642;28;20029;-88
2021/07/11 07:00:04;;;;;;;8.95;6.20;;;;;;;;;;5001302;28;20032;-89
2021/07/11 07:02:30;;;;;;;8.52;5.38;;;;;;;;;;4998248;28;20038;-89
2021/07/11 07:04:57;;;;;;;7.97;5.28;;;;;;;;;;5014179;28;20026;-88
2021/07/11 07:07:26;;;;;;;10.40;5.32;;;;;;;;;;5028551;28;20033;-89
2021/07/11 07:09:52;;;;;;;10.68;5.38;;;;;;;;;;4985641;28;20108;-89
2021/07/11 07:12:17;;;;;;;7.50;5.70;;;;;;;;;;4985250;28;20087;-89
2021/07/11 07:14:44;;;;;;;9.07;5.97;;;;;;;;;;4984599;28;20029;-87
2021/07/11 07:17:10;;;;;;;7.90;4.90;;;;;;;;;;4984902;28;20036;-87
2021/07/11 07:19:37;;;;;;;6.85;5.80;;;;;;;;;;4984931;28;20029;-87
2021/07/11 07:22:07;;;;;;;14.20;7.22;;;;;;;;;;4985485;28;20124;-87
2021/07/11 07:24:33;;;;;;;12.38;8.85;;;;;;;;;;4983610;28;20124;-82
2021/07/11 07:26:58;;;;;;;17.27;11.82;;;;;;;;;;4983825;28;20119;-83
2021/07/11 07:29:24;;;;;;;11.25;8.20;;;;;;;;;;5001239;28;20025;-87
2021/07/11 07:31:50;;;;;;;11.88;7.43;;;;;;;;;;4983789;28;20044;-83
2021/07/11 07:34:18;;;;;;;9.88;6.07;;;;;;;;;;4983482;28;20033;-83
2021/07/11 07:36:43;;;;;;;9.23;6.40;;;;;;;;;;5000317;28;20433;-84
2021/07/11 07:39:09;;;;;;;6.45;5.25;;;;;;;;;;4982790;28;20032;-84
2021/07/11 07:41:34;;;;;;;6.20;4.63;;;;;;;;;;4979774;28;20152;-84
2021/07/11 07:43:59;;;;;;;7.13;3.17;;;;;;;;;;5015080;28;20045;-83
2021/07/11 07:46:25;;;;;;;5.60;4.13;;;;;;;;;;4995518;28;20038;-84
2021/07/11 07:48:50;;;;;;;6.75;3.97;;;;;;;;;;4997127;28;20022;-84
2021/07/11 07:51:16;;;;;;;4.10;3.15;;;;;;;;;;4982722;28;20038;-84
2021/07/11 07:53:41;;;;;;;5.32;3.08;;;;;;;;;;4982989;28;20030;-84
2021/07/11 07:56:07;;;;;;;5.45;3.30;;;;;;;;;;4982982;28;20037;-83
2021/07/11 07:58:32;;;;;;;4.65;3.47;;;;;;;;;;4978998;28;20396;-83
2021/07/11 08:00:58;;;;;;;4.20;2.65;;;;;;;;;;5031587;28;20124;-83
2021/07/11 08:03:23;;;;;;;5.05;3.20;;;;;;;;;;4982631;28;20550;-83
2021/07/11 08:05:49;;;;;;;4.55;2.83;;;;;;;;;;4997654;28;20045;-83
2021/07/11 08:08:14;;;;;;;5.78;3.35;;;;;;;;;;5014732;28;20044;-81
2021/07/11 08:10:40;;;;;;;3.63;3.03;;;;;;;;;;5014576;28;20037;-81
2021/07/11 08:13:08;;;;;;;5.45;3.17;;;;;;;;;;4998623;28;20029;-81
2021/07/11 08:15:34;;;;;;;4.72;2.45;;;;;;;;;;4998561;28;20029;-81
2021/07/11 08:17:59;;;;;;;4.07;2.65;;;;;;;;;;4996379;28;20034;-80
2021/07/11 08:20:25;;;;;;;3.92;2.65;;;;;;;;;;5013138;28;20034;-81
2021/07/11 08:22:50;;;;;;;4.63;2.97;;;;;;;;;;4998450;28;20154;-81
2021/07/11 08:25:16;;;;;;;6.45;3.47;;;;;;;;;;5014873;28;20037;-81
2021/07/11 08:27:41;;;;;;;4.40;2.67;;;;;;;;;;5014921;28;20113;-81
2021/07/11 08:30:08;;;;;;;6.25;3.13;;;;;;;;;;4998660;28;20034;-81
2021/07/11 08:32:34;;;;;;;4.72;3.35;;;;;;;;;;4997896;28;20120;-81
2021/07/11 08:34:59;;;;;;;4.05;3.20;;;;;;;;;;4982295;28;20033;-81
2021/07/11 08:37:25;;;;;;;5.63;2.38;;;;;;;;;;4974412;28;20041;-81
2021/07/11 08:39:50;;;;;;;4.43;2.78;;;;;;;;;;5011560;28;20033;-81
2021/07/11 08:42:16;;;;;;;4.68;3.15;;;;;;;;;;5011459;28;20045;-81
2021/07/11 08:44:41;;;;;;;4.72;2.58;;;;;;;;;;5003300;28;20037;-81
2021/07/11 08:47:07;;;;;;;5.03;2.55;;;;;;;;;;5030943;28;20033;-81
2021/07/11 08:49:32;;;;;;;6.47;2.97;;;;;;;;;;5014364;28;20091;-81
2021/07/11 08:51:59;;;;;;;5.22;2.75;;;;;;;;;;5030937;28;20042;-80
2021/07/11 08:54:25;;;;;;;5.50;3.13;;;;;;;;;;4981938;28;20120;-81
2021/07/11 08:57:02;;;;;;;5.78;3.13;;;;;;;;;;4997931;28;20490;-81
2021/07/11 08:59:28;;;;;;;4.25;2.55;;;;;;;;;;5031299;28;20240;-81
2021/07/11 09:01:57;;;;;;;4.18;2.50;;;;;;;;;;4997659;28;20546;-80
2021/07/11 09:04:22;;;;;;;3.70;2.10;;;;;;;;;;5014059;28;20037;-81
2021/07/11 09:06:49;;;;;;;3.13;1.85;;;;;;;;;;5014200;28;20480;-81
2021/07/11 09:09:25;;;;;;;3.20;1.73;;;;;;;;;;5014003;28;20560;-80
2021/07/11 09:12:03;;;;;;;2.72;1.95;;;;;;;;;;4998094;28;20471;-80
2021/07/11 09:14:29;;;;;;;3.33;2.20;;;;;;;;;;5014932;28;20025;-80
2021/07/11 09:16:56;;;;;;;3.00;2.25;;;;;;;;;;4981728;28;20047;-81
2021/07/11 09:19:25;;;;;;;3.33;2.08;;;;;;;;;;4997682;28;20030;-81
2021/07/11 09:22:03;;;;;;;4.47;2.30;;;;;;;;;;4998367;28;20412;-81
2021/07/11 09:24:28;;;;;;;3.97;2.47;;;;;;;;;;4999041;28;20037;-81
2021/07/11 09:26:55;;;;;;;4.97;2.95;;;;;;;;;;4998377;28;20352;-81
2021/07/11 09:29:25;;;;;;;6.13;3.17;;;;;;;;;;4997263;28;20024;-81
2021/07/11 09:31:51;;;;;;;5.32;4.15;;;;;;;;;;5013046;28;20033;-81
2021/07/11 09:34:20;;;;;;;6.25;3.78;;;;;;;;;;5013594;28;20045;-81
2021/07/11 09:36:48;;;;;;;5.22;4.35;;;;;;;;;;4997180;28;20116;-80
2021/07/11 09:39:14;;;;;;;5.50;4.85;;;;;;;;;;4980501;28;20026;-81
2021/07/11 09:41:39;;;;;;;7.43;5.05;;;;;;;;;;4981402;28;20052;-81
2021/07/11 09:44:06;;;;;;;7.18;4.50;;;;;;;;;;4997134;28;20025;-80
2021/07/11 09:46:33;;;;;;;7.40;5.05;;;;;;;;;;4997828;28;20026;-80
2021/07/11 09:48:59;;;;;;;5.95;4.43;;;;;;;;;;4998154;28;20032;-80
2021/07/11 09:51:28;;;;;;;7.13;4.35;;;;;;;;;;5030366;28;20410;-80
2021/07/11 09:53:54;;;;;;;7.22;4.72;;;;;;;;;;5011252;28;20384;-81
2021/07/11 09:56:32;;;;;;;6.10;4.20;;;;;;;;;;4997124;28;20036;-81
2021/07/11 09:59:00;;;;;;;6.25;3.50;;;;;;;;;;5012315;28;20030;-81
2021/07/11 10:01:26;;;;;;;5.38;3.33;;;;;;;;;;4981180;28;20036;-81
2021/07/11 10:03:52;;;;;;;6.13;4.07;;;;;;;;;;4997258;28;20022;-80
2021/07/11 10:06:17;;;;;;;6.88;4.28;;;;;;;;;;4996808;28;20045;-80
2021/07/11 10:08:43;;;;;;;5.72;3.90;;;;;;;;;;4979965;28;20030;-81
2021/07/11 10:11:08;;;;;;;5.22;3.30;;;;;;;;;;5013475;28;20036;-80
2021/07/11 10:13:34;;;;;;;5.63;3.05;;;;;;;;;;4998227;28;20029;-81
2021/07/11 10:16:00;;;;;;;4.88;2.67;;;;;;;;;;5014319;28;20041;-81
2021/07/11 10:18:31;;;;;;;4.43;2.38;;;;;;;;;;5014007;28;20040;-81
2021/07/11 10:20:57;;;;;;;4.47;2.58;;;;;;;;;;5001310;28;20501;-81
2021/07/11 10:23:37;;;;;;;3.03;2.00;;;;;;;;;;5000735;28;20048;-80
2021/07/11 10:26:11;;;;;;;4.22;2.28;;;;;;;;;;5016576;28;20517;-81
2021/07/11 10:28:37;;;;;;;4.63;2.30;;;;;;;;;;5000482;28;20098;-80
2021/07/11 10:31:03;;;;;;;3.33;1.83;;;;;;;;;;5017277;28;20041;-80
2021/07/11 10:33:29;;;;;;;4.95;2.13;;;;;;;;;;5000790;28;20033;-80
2021/07/11 10:36:03;;;;;;;4.30;2.47;;;;;;;;;;5016932;28;20086;-81
2021/07/11 10:38:43;;;;;;;7.97;2.30;;;;;;;;;;4984030;28;20110;-81
2021/07/11 10:41:11;;;;;;;3.05;1.90;;;;;;;;;;5017012;28;20059;-80
2021/07/11 10:43:37;;;;;;;4.15;2.38;;;;;;;;;;5033174;28;20447;-80
2021/07/11 10:46:03;;;;;;;3.75;2.13;;;;;;;;;;5032568;28;20075;-80
2021/07/11 10:48:28;;;;;;;3.63;2.00;;;;;;;;;;5000019;28;20184;-80
2021/07/11 10:50:54;;;;;;;2.45;2.00;;;;;;;;;;5016852;28;20049;-81
2021/07/11 10:53:19;;;;;;;3.88;2.40;;;;;;;;;;5033054;28;20029;-80
2021/07/11 10:55:45;;;;;;;4.05;2.40;;;;;;;;;;4996384;28;20025;-80
2021/07/11 10:58:12;;;;;;;3.78;1.95;;;;;;;;;;5013614;28;20041;-80
2021/07/11 11:00:38;;;;;;;3.17;2.20;;;;;;;;;;5018912;28;20033;-80
2021/07/11 11:03:20;;;;;;;4.95;2.50;;;;;;;;;;4999944;28;20062;-80
2021/07/11 11:05:47;;;;;;;3.60;2.30;;;;;;;;;;4984503;28;20029;-80
2021/07/11 11:08:16;;;;;;;6.55;4.40;;;;;;;;;;4983750;28;20030;-80
2021/07/11 11:10:43;;;;;;;8.98;6.47;;;;;;;;;;4999831;28;20036;-80
2021/07/11 11:13:11;;;;;;;8.18;5.72;;;;;;;;;;5033113;28;20041;-81
2021/07/11 11:15:46;;;;;;;6.55;5.30;;;;;;;;;;5034120;28;20104;-81
2021/07/11 11:18:29;;;;;;;6.20;3.38;;;;;;;;;;5016053;28;20063;-81
2021/07/11 11:20:59;;;;;;;4.07;2.55;;;;;;;;;;4997202;28;20141;-81
2021/07/11 11:23:25;;;;;;;3.45;2.40;;;;;;;;;;5010935;28;20038;-81
2021/07/11 11:25:52;;;;;;;3.00;2.10;;;;;;;;;;4982852;28;20033;-81
2021/07/11 11:28:31;;;;;;;3.50;2.08;;;;;;;;;;5013185;28;20025;-81
2021/07/11 11:31:22;;;;;;;2.50;1.63;;;;;;;;;;4999497;28;20042;-80
2021/07/11 11:33:54;;;;;;;3.75;1.83;;;;;;;;;;5031484;28;20041;-80
2021/07/11 11:36:30;;;;;;;3.38;2.00;;;;;;;;;;5029597;28;20053;-81
2021/07/11 11:38:59;;;;;;;3.60;2.00;;;;;;;;;;5017422;28;20064;-81
2021/07/11 11:41:25;;;;;;;3.13;2.00;;;;;;;;;;5000353;28;20029;-81
2021/07/11 11:43:50;;;;;;;3.72;2.25;;;;;;;;;;5015670;28;20037;-81
2021/07/11 11:46:23;;;;;;;2.70;1.85;;;;;;;;;;4998382;28;20021;-80
2021/07/11 11:49:02;;;;;;;3.50;2.10;;;;;;;;;;5030701;28;20046;-81
2021/07/11 11:51:28;;;;;;;5.38;2.45;;;;;;;;;;4999314;28;20057;-82
2021/07/11 11:53:54;;;;;;;8.07;2.17;;;;;;;;;;4982817;28;20486;-83
2021/07/11 11:56:19;;;;;;;2.35;1.67;;;;;;;;;;4979646;28;20026;-82
2021/07/11 11:58:44;;;;;;;2.80;1.85;;;;;;;;;;4997004;28;20041;-82
2021/07/11 12:01:14;;;;;;;4.75;2.00;;;;;;;;;;4999107;28;20116;-83
2021/07/11 12:03:41;;;;;;;2.55;1.90;;;;;;;;;;4998232;28;20041;-82
2021/07/11 12:06:07;;;;;;;3.45;1.63;;;;;;;;;;4996319;28;20022;-82
2021/07/11 12:08:40;;;;;;;3.58;1.88;;;;;;;;;;4994891;28;20072;-82
2021/07/11 12:11:06;;;;;;;3.40;1.50;;;;;;;;;;4999035;28;20042;-81
2021/07/11 12:13:32;;;;;;;3.33;1.67;;;;;;;;;;4977180;28;20038;-82
2021/07/11 12:16:14;;;;;;;3.42;1.88;;;;;;;;;;5029937;28;20090;-82
2021/07/11 12:18:50;;;;;;;4.80;1.92;;;;;;;;;;4998618;28;20029;-82
2021/07/11 12:21:23;;;;;;;3.13;1.52;;;;;;;;;;5014643;28;20056;-83
2021/07/11 12:24:17;;;;;;;3.50;1.92;;;;;;;;;;4995949;28;20052;-82
2021/07/11 12:26:55;;;;;;;3.85;1.83;;;;;;;;;;4998642;28;20148;-82
2021/07/11 12:29:31;;;;;;;2.70;1.85;;;;;;;;;;4982039;28;20056;-83
2021/07/11 12:32:00;;;;;;;4.45;1.98;;;;;;;;;;4997731;28;20041;-83
2021/07/11 12:34:25;;;;;;;2.88;1.67;;;;;;;;;;5015666;28;20051;-83
2021/07/11 12:36:53;;;;;;;3.28;2.10;;;;;;;;;;4981842;28;20099;-83
2021/07/11 12:39:21;;;;;;;2.45;1.60;;;;;;;;;;5012493;28;20048;-83
2021/07/11 12:41:46;;;;;;;3.25;1.70;;;;;;;;;;4998681;28;20057;-83
2021/07/11 12:44:14;;;;;;;3.55;2.05;;;;;;;;;;4998133;28;20036;-83
2021/07/11 12:46:39;;;;;;;3.53;1.90;;;;;;;;;;4978825;28;20061;-84
2021/07/11 12:49:15;;;;;;;2.80;2.08;;;;;;;;;;4997383;28;20030;-83
2021/07/11 12:51:50;;;;;;;3.10;2.35;;;;;;;;;;5013332;28;20033;-83
2021/07/11 12:54:20;;;;;;;3.30;2.67;;;;;;;;;;4998792;28;20120;-83
2021/07/11 12:57:00;;;;;;;4.45;2.30;;;;;;;;;;4997955;28;20026;-82
2021/07/11 12:59:35;;;;;;;3.85;2.30;;;;;;;;;;5013700;28;20061;-82
2021/07/11 13:02:03;;;;;;;3.58;2.20;;;;;;;;;;5000908;28;20042;-82
2021/07/11 13:04:29;;;;;;;3.97;2.95;;;;;;;;;;5024829;28;20044;-83
2021/07/11 13:07:06;;;;;;;4.65;3.08;;;;;;;;;;4993868;28;20104;-82
2021/07/11 13:09:32;;;;;;;4.93;3.20;;;;;;;;;;4993622;28;20022;-83
2021/07/11 13:11:57;;;;;;;5.90;3.67;;;;;;;;;;4994768;28;20083;-83
2021/07/11 13:14:23;;;;;;;5.15;3.10;;;;;;;;;;4997926;28;20025;-83
2021/07/11 13:16:49;;;;;;;5.50;3.45;;;;;;;;;;4997768;28;20034;-82
2021/07/11 13:19:14;;;;;;;3.58;2.72;;;;;;;;;;4997833;28;20085;-83
2021/07/11 13:21:40;;;;;;;3.63;2.30;;;;;;;;;;4981682;28;20037;-83
2021/07/11 13:24:06;;;;;;;3.83;2.78;;;;;;;;;;4981534;28;20033;-83
2021/07/11 13:26:32;;;;;;;3.97;2.55;;;;;;;;;;4997596;28;20087;-82
2021/07/11 13:28:57;;;;;;;3.80;2.17;;;;;;;;;;4981660;28;20041;-83
2021/07/11 13:31:28;;;;;;;3.15;1.83;;;;;;;;;;4997353;28;20056;-83
2021/07/11 13:33:54;;;;;;;2.63;1.85;;;;;;;;;;4998865;28;20029;-83
2021/07/11 13:36:19;;;;;;;3.67;1.80;;;;;;;;;;4985498;28;20104;-83
2021/07/11 13:38:45;;;;;;;2.58;1.70;;;;;;;;;;5010942;28;20037;-80
2021/07/11 13:41:10;;;;;;;2.03;1.45;;;;;;;;;;4981398;28;20091;-80
2021/07/11 13:43:36;;;;;;;3.55;1.67;;;;;;;;;;5013803;28;20083;-80
2021/07/11 13:46:01;;;;;;;2.63;1.73;;;;;;;;;;4980877;28;20086;-80
2021/07/11 13:48:27;;;;;;;2.90;1.65;;;;;;;;;;5013995;28;20049;-80
2021/07/11 13:50:52;;;;;;;2.85;2.10;;;;;;;;;;5004466;28;20133;-80
2021/07/11 13:53:19;;;;;;;5.60;2.88;;;;;;;;;;5015660;28;20060;-82
2021/07/11 13:55:46;;;;;;;4.00;2.53;;;;;;;;;;4985409;28;20386;-83
2021/07/11 13:58:12;;;;;;;4.30;2.72;;;;;;;;;;4985391;28;20060;-83
2021/07/11 14:00:38;;;;;;;5.07;3.55;;;;;;;;;;5001196;28;20056;-82
2021/07/11 14:03:04;;;;;;;3.92;3.08;;;;;;;;;;5000915;28;20052;-83
2021/07/11 14:05:29;;;;;;;5.38;2.97;;;;;;;;;;5017415;28;20099;-82
2021/07/11 14:07:55;;;;;;;4.25;2.72;;;;;;;;;;5017265;28;20079;-82
2021/07/11 14:10:20;;;;;;;2.50;1.48;;;;;;;;;;5034411;28;20572;-85
2021/07/11 14:12:46;;;;;;;2.55;1.55;;;;;;;;;;5017746;28;20044;-84
2021/07/11 14:15:12;;;;;;;2.60;1.63;;;;;;;;;;5017042;28;20044;-83
2021/07/11 14:17:38;;;;;;;4.25;1.90;;;;;;;;;;5016788;28;20490;-83
2021/07/11 14:20:04;;;;;;;2.38;1.45;;;;;;;;;;5001239;28;20034;-83
2021/07/11 14:22:30;;;;;;;2.95;1.63;;;;;;;;;;4984662;28;20471;-83
2021/07/11 14:24:55;;;;;;;5.65;1.73;;;;;;;;;;4984575;28;20115;-83
2021/07/11 14:27:22;;;;;;;3.33;1.45;;;;;;;;;;4984685;28;20075;-83
2021/07/11 14:29:47;;;;;;;2.13;1.20;;;;;;;;;;4984540;28;20029;-83
2021/07/11 14:32:13;;;;;;;2.90;1.55;;;;;;;;;;4984775;28;20396;-84
2021/07/11 14:34:39;;;;;;;2.63;1.55;;;;;;;;;;5000693;28;20048;-83
2021/07/11 14:37:05;;;;;;;4.57;1.58;;;;;;;;;;5001137;28;20037;-85
2021/07/11 14:39:33;;;;;;;1.83;1.10;;;;;;;;;;5000579;28;20041;-85
2021/07/11 14:41:59;;;;;;;2.15;1.40;;;;;;;;;;5000829;28;20033;-85
2021/07/11 14:44:26;;;;;;;3.15;1.38;;;;;;;;;;5000777;28;20031;-85